createdAt,value
2023-02-08T00:01:18.093Z,101857.75
2023-02-08T00:03:45.319Z,101854.50
2023-02-08T00:06:13.233Z,101851.00
2023-02-08T00:08:40.687Z,101846.88
2023-02-08T00:11:10.646Z,101845.25
2023-02-08T00:13:41.871Z,101843.50
2023-02-08T00:16:09.222Z,101839.09
2023-02-08T00:18:36.044Z,101839.19
2023-02-08T00:21:12.536Z,101838.31
2023-02-08T00:23:39.451Z,101836.00
2023-02-08T00:26:06.800Z,101841.00
2023-02-08T00:28:33.627Z,101834.34
2023-02-08T00:31:00.522Z,101846.88
2023-02-08T00:33:27.375Z,101837.75
2023-02-08T00:36:02.555Z,101844.38
2023-02-08T00:38:29.845Z,101843.50
2023-02-08T00:40:56.825Z,101838.31
2023-02-08T00:43:23.572Z,101840.72
2023-02-08T00:45:58.416Z,101841.41
2023-02-08T00:48:27.458Z,101837.16
2023-02-08T00:51:13.446Z,101841.25
2023-02-08T00:53:45.209Z,101842.81
2023-02-08T00:56:14.757Z,101838.47
2023-02-08T00:58:43.150Z,101835.09
2023-02-08T01:01:10.596Z,101823.47
2023-02-08T01:03:41.085Z,101837.72
2023-02-08T01:06:13.267Z,101831.94
2023-02-08T01:08:40.322Z,101826.84
2023-02-08T01:11:18.418Z,101829.34
2023-02-08T01:13:45.612Z,101836.75
2023-02-08T01:16:19.209Z,101840.66
2023-02-08T01:18:50.044Z,101839.31
2023-02-08T01:21:21.659Z,101839.03
2023-02-08T01:23:49.407Z,101836.13
2023-02-08T01:26:18.216Z,101836.78
2023-02-08T01:28:45.036Z,101828.97
2023-02-08T01:31:21.049Z,101828.97
2023-02-08T01:33:48.397Z,101832.13
2023-02-08T01:36:17.025Z,101824.53
2023-02-08T01:38:45.264Z,101824.53
2023-02-08T01:41:28.337Z,101827.78
2023-02-08T01:44:17.584Z,101817.59
2023-02-08T01:46:48.706Z,101816.53
2023-02-08T01:49:28.947Z,101818.94
2023-02-08T01:52:18.132Z,101817.19
2023-02-08T01:55:05.450Z,101813.75
2023-02-08T01:57:32.452Z,101813.75
2023-02-08T02:00:16.221Z,101815.34
2023-02-08T02:02:45.964Z,101815.34
2023-02-08T02:05:13.859Z,101808.50
2023-02-08T02:07:41.408Z,101811.81
2023-02-08T02:10:16.274Z,101813.31
2023-02-08T02:12:44.678Z,101810.63
2023-02-08T02:15:11.699Z,101819.63
2023-02-08T02:17:40.177Z,101816.19
2023-02-08T02:20:42.573Z,101813.69
2023-02-08T02:23:24.388Z,101820.97
2023-02-08T02:26:16.851Z,101822.59
2023-02-08T02:29:31.571Z,101820.19
2023-02-08T02:32:21.627Z,101818.38
2023-02-08T02:35:07.658Z,101813.38
2023-02-08T02:38:11.344Z,101808.47
2023-02-08T02:41:03.013Z,101810.00
2023-02-08T02:43:55.242Z,101804.88
2023-02-08T02:46:30.474Z,101808.19
2023-02-08T02:49:26.679Z,101810.69
2023-02-08T02:52:18.598Z,101807.84
2023-02-08T02:54:54.146Z,101799.28
2023-02-08T02:57:29.982Z,101804.06
2023-02-08T02:59:58.833Z,101804.06
2023-02-08T03:02:28.185Z,101803.22
2023-02-08T03:04:57.269Z,101795.59
2023-02-08T03:07:49.128Z,101799.00
2023-02-08T03:10:58.583Z,101804.53
2023-02-08T03:14:04.853Z,101794.97
2023-02-08T03:17:11.075Z,101801.28
2023-02-08T03:20:13.963Z,101801.00
2023-02-08T03:22:58.413Z,101803.28
2023-02-08T03:25:47.795Z,101802.31
2023-02-08T03:28:53.841Z,101800.47
2023-02-08T03:31:45.802Z,101801.13
2023-02-08T03:34:29.963Z,101801.88
2023-02-08T03:37:10.896Z,101794.50
2023-02-08T03:39:40.787Z,101796.88
2023-02-08T03:42:19.350Z,101795.28
2023-02-08T03:45:00.644Z,101796.13
2023-02-08T03:47:35.219Z,101800.28
2023-02-08T03:50:08.544Z,101796.03
2023-02-08T03:52:37.234Z,101798.53
2023-02-08T03:55:13.272Z,101800.03
2023-02-08T03:57:57.905Z,101795.69
2023-02-08T04:00:25.589Z,101793.00
2023-02-08T04:03:02.143Z,101793.75
2023-02-08T04:05:29.688Z,101797.91
2023-02-08T04:07:56.478Z,101791.25
2023-02-08T04:10:23.424Z,101790.41
2023-02-08T04:12:50.434Z,101800.50
2023-02-08T04:15:17.907Z,101798.00
2023-02-08T04:17:44.915Z,101797.16
2023-02-08T04:20:12.180Z,101794.50
2023-02-08T04:22:39.182Z,101792.69
2023-02-08T04:25:06.424Z,101786.81
2023-02-08T04:27:33.209Z,101790.97
2023-02-08T04:30:00.013Z,101786.81
2023-02-08T04:32:26.772Z,101795.84
2023-02-08T04:34:53.557Z,101800.94
2023-02-08T04:37:20.307Z,101800.28
2023-02-08T04:39:47.096Z,101800.50
2023-02-08T04:42:13.842Z,101803.09
2023-02-08T04:44:40.722Z,101800.50
2023-02-08T04:47:07.592Z,101803.31
2023-02-08T04:49:34.557Z,101805.91
2023-02-08T04:52:01.448Z,101805.25
2023-02-08T04:54:28.364Z,101803.53
2023-02-08T04:56:55.550Z,101797.69
2023-02-08T04:59:22.445Z,101801.88
2023-02-08T05:01:49.232Z,101806.88
2023-02-08T05:04:16.058Z,101806.00
2023-02-08T05:06:42.782Z,101803.53
2023-02-08T05:09:10.234Z,101804.19
2023-02-08T05:11:37.411Z,101800.03
2023-02-08T05:14:04.799Z,101801.59
2023-02-08T05:16:31.900Z,101797.44
2023-02-08T05:18:58.682Z,101796.34
2023-02-08T05:21:25.571Z,101801.47
2023-02-08T05:23:52.499Z,101803.00
2023-02-08T05:26:19.430Z,101796.16
2023-02-08T05:28:46.625Z,101792.69
2023-02-08T05:31:18.682Z,101790.88
2023-02-08T05:33:45.518Z,101784.88
2023-02-08T05:36:12.589Z,101795.63
2023-02-08T05:38:39.344Z,101800.41
2023-02-08T05:41:06.304Z,101799.44
2023-02-08T05:43:33.213Z,101794.44
2023-02-08T05:45:59.993Z,101803.47
2023-02-08T05:48:27.007Z,101803.47
2023-02-08T05:50:54.129Z,101805.06
2023-02-08T05:53:20.889Z,101803.31
2023-02-08T05:55:48.634Z,101800.72
2023-02-08T05:58:16.878Z,101799.81
2023-02-08T06:00:44.151Z,101809.09
2023-02-08T06:03:11.302Z,101802.63
2023-02-08T06:05:40.229Z,101806.13
2023-02-08T06:08:07.590Z,101804.94
2023-02-08T06:10:34.852Z,101807.97
2023-02-08T06:13:02.279Z,101804.41
2023-02-08T06:15:29.102Z,101809.19
2023-02-08T06:17:55.956Z,101804.09
2023-02-08T06:20:23.090Z,101804.84
2023-02-08T06:22:49.817Z,101806.34
2023-02-08T06:25:16.652Z,101807.91
2023-02-08T06:27:43.352Z,101815.28
2023-02-08T06:30:11.241Z,101815.94
2023-02-08T06:32:39.238Z,101815.81
2023-02-08T06:35:06.658Z,101818.19
2023-02-08T06:37:33.453Z,101815.59
2023-02-08T06:40:01.849Z,101814.66
2023-02-08T06:42:29.048Z,101808.66
2023-02-08T06:44:57.879Z,101811.91
2023-02-08T06:47:26.871Z,101809.31
2023-02-08T06:49:53.884Z,101817.56
2023-02-08T06:52:21.517Z,101815.06
2023-02-08T06:54:48.985Z,101814.41
2023-02-08T06:57:16.672Z,101811.91
2023-02-08T06:59:46.670Z,101819.63
2023-02-08T07:02:19.872Z,101817.13
2023-02-08T07:04:47.549Z,101816.34
2023-02-08T07:07:16.927Z,101812.25
2023-02-08T07:09:44.282Z,101808.22
2023-02-08T07:12:12.093Z,101816.88
2023-02-08T07:14:43.940Z,101799.00
2023-02-08T07:17:13.182Z,101796.50
2023-02-08T07:19:40.757Z,101800.00
2023-02-08T07:22:08.461Z,101793.34
2023-02-08T07:24:40.459Z,101789.69
2023-02-08T07:27:11.531Z,101787.50
2023-02-08T07:29:39.733Z,101792.34
2023-02-08T07:32:08.108Z,101780.81
2023-02-08T07:34:38.406Z,101785.38
2023-02-08T07:37:05.531Z,101784.16
2023-02-08T07:39:32.742Z,101782.75
2023-02-08T07:42:00.330Z,101783.19
2023-02-08T07:44:27.581Z,101778.41
2023-02-08T07:46:54.710Z,101781.88
2023-02-08T07:49:21.881Z,101782.66
2023-02-08T07:51:49.165Z,101780.56
2023-02-08T07:54:16.677Z,101776.88
2023-02-08T07:56:43.729Z,101775.22
2023-02-08T07:59:11.755Z,101762.91
2023-02-08T08:01:38.787Z,101764.03
2023-02-08T08:04:06.220Z,101767.63
2023-02-08T08:06:33.255Z,101765.91
2023-02-08T08:09:00.925Z,101764.06
2023-02-08T08:11:28.035Z,101766.28
2023-02-08T08:13:55.246Z,101770.09
2023-02-08T08:16:22.710Z,101762.06
2023-02-08T08:18:50.932Z,101761.66
2023-02-08T08:21:18.171Z,101757.84
2023-02-08T08:23:45.416Z,101756.56
2023-02-08T08:26:20.100Z,101752.06
2023-02-08T08:28:48.481Z,101766.22
2023-02-08T08:31:22.376Z,101753.91
2023-02-08T08:33:49.809Z,101753.38
2023-02-08T08:36:17.147Z,101760.59
2023-02-08T08:38:44.327Z,101766.22
2023-02-08T08:41:15.180Z,101760.78
2023-02-08T08:43:42.129Z,101752.78
2023-02-08T08:46:10.289Z,101744.72
2023-02-08T08:48:38.864Z,101751.88
2023-02-08T08:51:06.739Z,101752.25
2023-02-08T08:53:34.554Z,101745.00
2023-02-08T08:56:01.528Z,101748.63
2023-02-08T08:58:28.542Z,101741.19
2023-02-08T09:01:00.041Z,101743.09
2023-02-08T09:03:28.596Z,101736.41
2023-02-08T09:05:56.392Z,101739.88
2023-02-08T09:08:23.249Z,101733.06
2023-02-08T09:10:50.504Z,101732.13
2023-02-08T09:13:19.849Z,101727.84
2023-02-08T09:15:48.643Z,101726.94
2023-02-08T09:18:16.070Z,101723.50
2023-02-08T09:20:43.418Z,101726.13
2023-02-08T09:23:10.533Z,101730.50
2023-02-08T09:25:37.830Z,101728.84
2023-02-08T09:28:04.920Z,101728.97
2023-02-08T09:30:32.629Z,101724.81
2023-02-08T09:32:59.418Z,101720.66
2023-02-08T09:35:26.308Z,101726.69
2023-02-08T09:37:57.768Z,101730.25
2023-02-08T09:40:41.899Z,101729.41
2023-02-08T09:43:30.569Z,101722.63
2023-02-08T09:46:19.138Z,101721.78
2023-02-08T09:48:49.452Z,101718.44
2023-02-08T09:51:37.325Z,101724.44
2023-02-08T09:54:23.036Z,101732.16
2023-02-08T09:56:52.450Z,101730.53
2023-02-08T09:59:29.408Z,101732.25
2023-02-08T10:02:11.272Z,101731.44
2023-02-08T10:05:03.134Z,101732.28
2023-02-08T10:07:32.416Z,101730.59
2023-02-08T10:10:11.818Z,101740.88
2023-02-08T10:12:53.023Z,101727.28
2023-02-08T10:15:40.854Z,101722.13
2023-02-08T10:18:46.050Z,101717.00
2023-02-08T10:21:57.184Z,101723.84
2023-02-08T10:25:05.049Z,101711.88
2023-02-08T10:27:49.555Z,101718.75
2023-02-08T10:30:40.747Z,101722.19
2023-02-08T10:33:22.349Z,101718.75
2023-02-08T10:35:50.747Z,101712.78
2023-02-08T10:38:20.266Z,101715.34
2023-02-08T10:40:55.462Z,101705.09
2023-02-08T10:43:35.359Z,101718.75
2023-02-08T10:46:33.524Z,101715.34
2023-02-08T10:49:40.867Z,101717.03
2023-02-08T10:52:07.849Z,101719.56
2023-02-08T10:54:35.426Z,101719.56
2023-02-08T10:57:17.710Z,101717.78
2023-02-08T11:00:09.652Z,101714.34
2023-02-08T11:02:42.492Z,101716.03
2023-02-08T11:05:35.988Z,101703.25
2023-02-08T11:08:10.814Z,101704.00
2023-02-08T11:10:40.439Z,101701.38
2023-02-08T11:13:19.370Z,101698.75
2023-02-08T11:15:58.924Z,101700.44
2023-02-08T11:18:32.514Z,101699.50
2023-02-08T11:21:08.176Z,101694.31
2023-02-08T11:23:41.592Z,101706.16
2023-02-08T11:26:31.313Z,101707.81
2023-02-08T11:29:23.178Z,101694.97
2023-02-08T11:31:56.576Z,101700.03
2023-02-08T11:34:39.166Z,101694.78
2023-02-08T11:37:19.468Z,101690.34
2023-02-08T11:39:51.706Z,101684.16
2023-02-08T11:42:30.150Z,101685.53
2023-02-08T11:44:59.827Z,101685.22
2023-02-08T11:47:31.365Z,101687.50
2023-02-08T11:50:05.626Z,101676.06
2023-02-08T11:52:39.161Z,101677.44
2023-02-08T11:55:25.169Z,101679.59
2023-02-08T11:58:19.189Z,101668.09
2023-02-08T12:01:04.856Z,101672.72
2023-02-08T12:03:41.082Z,101672.25
2023-02-08T12:06:40.813Z,101660.78
2023-02-08T12:10:12.935Z,101653.56
2023-02-08T12:13:01.087Z,101645.44
2023-02-08T12:16:20.137Z,101646.63
2023-02-08T12:18:57.828Z,101650.41
2023-02-08T12:21:45.272Z,101641.53
2023-02-08T12:24:44.742Z,101641.84
2023-02-08T12:27:59.542Z,101637.00
2023-02-08T12:30:43.011Z,101625.28
2023-02-08T12:33:36.832Z,101623.75
2023-02-08T12:36:29.869Z,101627.34
2023-02-08T12:40:01.937Z,101625.09
2023-02-08T12:43:08.304Z,101619.28
2023-02-08T12:45:47.221Z,101619.72
2023-02-08T12:48:37.736Z,101617.84
2023-02-08T12:51:20.544Z,101615.88
2023-02-08T12:53:57.710Z,101608.13
2023-02-08T12:56:37.260Z,101612.06
2023-02-08T12:59:13.822Z,101606.00
2023-02-08T13:01:53.879Z,101610.94
2023-02-08T13:04:39.885Z,101604.00
2023-02-08T13:07:21.974Z,101593.75
2023-02-08T13:10:39.608Z,101595.31
2023-02-08T13:13:21.739Z,101591.72
2023-02-08T13:16:03.052Z,101593.28
2023-02-08T13:18:45.388Z,101594.03
2023-02-08T13:21:20.477Z,101584.69
2023-02-08T13:23:53.145Z,101590.63
2023-02-08T13:26:31.721Z,101582.06
2023-02-08T13:29:02.602Z,101577.72
2023-02-08T13:31:38.889Z,101571.63
2023-02-08T13:34:38.955Z,101575.63
2023-02-08T13:37:31.467Z,101570.31
2023-02-08T13:40:28.111Z,101567.56
2023-02-08T13:43:35.651Z,101563.88
2023-02-08T13:46:05.864Z,101548.31
2023-02-08T13:49:02.107Z,101551.56
2023-02-08T13:51:31.586Z,101544.69
2023-02-08T13:54:01.149Z,101547.06
2023-02-08T13:56:51.284Z,101548.59
2023-02-08T13:59:41.742Z,101540.78
2023-02-08T14:02:19.927Z,101542.28
2023-02-08T14:04:51.003Z,101549.81
2023-02-08T14:07:46.236Z,101544.72
2023-02-08T14:10:46.558Z,101546.31
2023-02-08T14:13:28.968Z,101541.91
2023-02-08T14:16:24.038Z,101530.81
2023-02-08T14:18:58.183Z,101521.44
2023-02-08T14:21:36.344Z,101520.47
2023-02-08T14:24:08.852Z,101522.94
2023-02-08T14:26:37.281Z,101527.09
2023-02-08T14:29:06.741Z,101523.59
2023-02-08T14:31:41.017Z,101515.06
2023-02-08T14:34:34.780Z,101522.41
2023-02-08T14:37:10.852Z,101516.41
2023-02-08T14:39:38.024Z,101510.31
2023-02-08T14:42:09.469Z,101513.59
2023-02-08T14:44:39.176Z,101503.28
2023-02-08T14:47:38.428Z,101503.03
2023-02-08T14:50:17.288Z,101498.63
2023-02-08T14:52:57.709Z,101501.91
2023-02-08T14:55:34.004Z,101493.41
2023-02-08T14:58:02.661Z,101497.56
2023-02-08T15:00:36.260Z,101488.25
2023-02-08T15:03:11.644Z,101487.41
2023-02-08T15:05:57.334Z,101491.47
2023-02-08T15:08:24.955Z,101486.25
2023-02-08T15:10:51.820Z,101492.03
2023-02-08T15:13:25.200Z,101486.03
2023-02-08T15:15:57.318Z,101481.59
2023-02-08T15:18:30.937Z,101477.31
2023-02-08T15:21:17.640Z,101477.94
2023-02-08T15:24:14.263Z,101474.53
2023-02-08T15:26:55.657Z,101480.22
2023-02-08T15:29:39.056Z,101478.53
2023-02-08T15:32:18.256Z,101475.03
2023-02-08T15:34:53.128Z,101462.41
2023-02-08T15:37:21.160Z,101464.00
2023-02-08T15:39:57.485Z,101463.22
2023-02-08T15:42:28.956Z,101469.00
2023-02-08T15:44:56.401Z,101470.66
2023-02-08T15:47:31.870Z,101479.78
2023-02-08T15:50:00.318Z,101462.00
2023-02-08T15:52:32.559Z,101468.66
2023-02-08T15:54:59.320Z,101462.63
2023-02-08T15:57:28.936Z,101475.13
2023-02-08T15:59:56.619Z,101467.44
2023-02-08T16:02:33.933Z,101461.34
2023-02-08T16:05:10.508Z,101457.75
2023-02-08T16:07:40.982Z,101460.06
2023-02-08T16:10:10.018Z,101447.31
2023-02-08T16:12:36.917Z,101445.44
2023-02-08T16:15:04.189Z,101440.22
2023-02-08T16:17:46.129Z,101434.16
2023-02-08T16:20:35.637Z,101438.09
2023-02-08T16:23:23.312Z,101434.41
2023-02-08T16:25:51.059Z,101437.41
2023-02-08T16:28:39.217Z,101424.53
2023-02-08T16:31:07.898Z,101418.38
2023-02-08T16:33:37.297Z,101418.22
2023-02-08T16:36:04.396Z,101418.00
2023-02-08T16:38:34.153Z,101423.78
2023-02-08T16:41:12.623Z,101422.00
2023-02-08T16:43:44.059Z,101423.44
2023-02-08T16:46:11.028Z,101421.66
2023-02-08T16:48:40.800Z,101433.34
2023-02-08T16:51:18.784Z,101426.44
2023-02-08T16:53:47.597Z,101419.50
2023-02-08T16:56:14.991Z,101425.25
2023-02-08T16:58:41.816Z,101429.28
2023-02-08T17:01:13.808Z,101427.03
2023-02-08T17:03:41.721Z,101427.31
2023-02-08T17:06:28.446Z,101415.91
2023-02-08T17:08:56.202Z,101421.34
2023-02-08T17:11:23.404Z,101415.16
2023-02-08T17:13:52.209Z,101406.47
2023-02-08T17:16:23.406Z,101402.13
2023-02-08T17:18:51.270Z,101404.41
2023-02-08T17:21:18.810Z,101401.84
2023-02-08T17:23:46.966Z,101392.44
2023-02-08T17:26:22.951Z,101389.00
2023-02-08T17:28:50.386Z,101388.69
2023-02-08T17:31:17.461Z,101389.31
2023-02-08T17:33:44.854Z,101395.78
2023-02-08T17:36:14.530Z,101395.56
2023-02-08T17:38:43.707Z,101401.31
2023-02-08T17:41:19.296Z,101393.53
2023-02-08T17:43:51.231Z,101389.16
2023-02-08T17:46:25.318Z,101388.09
2023-02-08T17:48:52.581Z,101397.25
2023-02-08T17:51:23.248Z,101392.78
2023-02-08T17:53:50.824Z,101373.28
2023-02-08T17:56:22.110Z,101379.88
2023-02-08T17:58:53.589Z,101380.53
2023-02-08T18:01:25.329Z,101382.84
2023-02-08T18:03:53.405Z,101377.66
2023-02-08T18:06:20.825Z,101378.38
2023-02-08T18:08:47.552Z,101372.44
2023-02-08T18:11:19.645Z,101372.28
2023-02-08T18:13:48.387Z,101374.72
2023-02-08T18:16:23.866Z,101370.34
2023-02-08T18:18:51.142Z,101367.66
2023-02-08T18:21:21.311Z,101375.03
2023-02-08T18:23:49.500Z,101367.34
2023-02-08T18:26:21.117Z,101370.59
2023-02-08T18:28:48.528Z,101363.69
2023-02-08T18:31:19.957Z,101367.72
2023-02-08T18:33:49.609Z,101372.53
2023-02-08T18:36:16.881Z,101374.81
2023-02-08T18:38:46.334Z,101366.22
2023-02-08T18:41:24.007Z,101368.41
2023-02-08T18:43:51.695Z,101365.63
2023-02-08T18:46:21.498Z,101365.41
2023-02-08T18:48:50.424Z,101367.53
2023-02-08T18:51:19.841Z,101363.09
2023-02-08T18:53:50.864Z,101360.44
2023-02-08T18:56:23.456Z,101352.63
2023-02-08T18:58:52.031Z,101347.25
2023-02-08T19:01:22.694Z,101356.97
2023-02-08T19:03:50.332Z,101352.47
2023-02-08T19:06:24.345Z,101356.38
2023-02-08T19:08:56.458Z,101349.38
2023-02-08T19:11:26.605Z,101349.91
2023-02-08T19:13:57.539Z,101352.97
2023-02-08T19:16:25.525Z,101348.50
2023-02-08T19:18:56.381Z,101355.88
2023-02-08T19:21:23.929Z,101355.66
2023-02-08T19:23:52.964Z,101347.09
2023-02-08T19:26:26.191Z,101351.88
2023-02-08T19:28:57.673Z,101344.84
2023-02-08T19:31:26.362Z,101347.00
2023-02-08T19:33:58.552Z,101349.31
2023-02-08T19:36:52.014Z,101343.97
2023-02-08T19:39:26.475Z,101341.13
2023-02-08T19:41:54.091Z,101334.25
2023-02-08T19:44:21.735Z,101336.59
2023-02-08T19:46:55.027Z,101332.38
2023-02-08T19:49:25.369Z,101332.28
2023-02-08T19:51:52.129Z,101338.06
2023-02-08T19:54:19.990Z,101337.22
2023-02-08T19:56:47.356Z,101338.78
2023-02-08T19:59:25.317Z,101332.72
2023-02-08T20:01:53.084Z,101334.25
2023-02-08T20:04:21.410Z,101330.00
2023-02-08T20:06:52.783Z,101333.34
2023-02-08T20:09:19.862Z,101331.63
2023-02-08T20:12:02.261Z,101334.06
2023-02-08T20:14:32.740Z,101332.19
2023-02-08T20:17:01.569Z,101332.88
2023-02-08T20:19:29.150Z,101316.03
2023-02-08T20:21:56.058Z,101322.72
2023-02-08T20:24:22.811Z,101328.50
2023-02-08T20:26:50.654Z,101329.25
2023-02-08T20:29:18.287Z,101337.66
2023-02-08T20:31:48.855Z,101330.91
2023-02-08T20:34:18.599Z,101328.41
2023-02-08T20:37:05.327Z,101321.59
2023-02-08T20:39:34.991Z,101326.53
2023-02-08T20:42:01.764Z,101322.28
2023-02-08T20:44:28.741Z,101316.34
2023-02-08T20:46:55.597Z,101320.41
2023-02-08T20:49:25.441Z,101316.97
2023-02-08T20:51:54.460Z,101320.06
2023-02-08T20:54:24.288Z,101313.25
2023-02-08T20:56:53.012Z,101315.69
2023-02-08T20:59:20.049Z,101323.91
2023-02-08T21:01:47.072Z,101310.44
2023-02-08T21:04:14.124Z,101312.78
2023-02-08T21:06:44.562Z,101308.47
2023-02-08T21:09:15.864Z,101309.16
2023-02-08T21:11:43.601Z,101317.28
2023-02-08T21:14:18.783Z,101320.47
2023-02-08T21:16:48.403Z,101327.84
2023-02-08T21:19:15.695Z,101326.78
2023-02-08T21:21:43.306Z,101323.41
2023-02-08T21:24:11.217Z,101324.09
2023-02-08T21:26:37.997Z,101327.28
2023-02-08T21:29:06.314Z,101329.81
2023-02-08T21:31:36.447Z,101324.78
2023-02-08T21:34:05.742Z,101320.59
2023-02-08T21:36:33.293Z,101321.44
2023-02-08T21:39:00.405Z,101321.38
2023-02-08T21:41:30.995Z,101311.34
2023-02-08T21:44:00.958Z,101310.59
2023-02-08T21:46:28.401Z,101312.22
2023-02-08T21:49:29.713Z,101308.16
2023-02-08T21:52:15.102Z,101297.19
2023-02-08T21:54:41.952Z,101303.09
2023-02-08T21:57:27.938Z,101293.00
2023-02-08T21:59:58.947Z,101311.19
2023-02-08T22:02:29.965Z,101305.25
2023-02-08T22:05:00.080Z,101309.28
2023-02-08T22:07:28.383Z,101304.97
2023-02-08T22:09:55.692Z,101301.38
2023-02-08T22:12:23.662Z,101307.06
2023-02-08T22:14:50.915Z,101311.97
2023-02-08T22:17:18.108Z,101309.31
2023-02-08T22:19:44.905Z,101311.72
2023-02-08T22:22:12.334Z,101306.56
2023-02-08T22:24:39.156Z,101310.59
2023-02-08T22:27:05.951Z,101308.97
2023-02-08T22:29:33.467Z,101314.84
2023-02-08T22:32:01.070Z,101309.66
2023-02-08T22:34:28.660Z,101304.66
2023-02-08T22:36:55.448Z,101301.03
2023-02-08T22:39:22.289Z,101299.13
2023-02-08T22:41:49.468Z,101303.97
2023-02-08T22:44:16.403Z,101302.09
2023-02-08T22:46:43.162Z,101308.53
2023-02-08T22:49:09.949Z,101311.72
2023-02-08T22:51:37.480Z,101301.38
2023-02-08T22:54:04.451Z,101313.69
2023-02-08T22:56:31.474Z,101311.81
2023-02-08T22:59:00.262Z,101316.63
2023-02-08T23:01:27.479Z,101321.44
2023-02-08T23:03:54.239Z,101311.97
2023-02-08T23:06:20.982Z,101315.16
2023-02-08T23:08:48.171Z,101312.38
2023-02-08T23:11:15.670Z,101309.63
2023-02-08T23:13:42.449Z,101307.72
2023-02-08T23:16:16.943Z,101310.81
2023-02-08T23:18:44.223Z,101304.78
2023-02-08T23:21:16.489Z,101301.13
2023-02-08T23:23:45.504Z,101299.16
2023-02-08T23:26:17.310Z,101308.00
2023-02-08T23:28:45.324Z,101304.44
2023-02-08T23:31:15.128Z,101308.31
2023-02-08T23:33:42.581Z,101310.72
2023-02-08T23:36:13.886Z,101314.56
2023-02-08T23:38:43.590Z,101309.50
2023-02-08T23:41:14.904Z,101307.59
2023-02-08T23:43:42.480Z,101303.28
2023-02-08T23:46:14.799Z,101304.72
2023-02-08T23:48:43.000Z,101302.91
2023-02-08T23:51:10.294Z,101294.44
2023-02-08T23:53:37.833Z,101296.84
2023-02-08T23:56:22.629Z,101296.69
2023-02-08T23:58:53.442Z,101290.81
